sensor_id;sensor_type;location;lat;lon;timestamp;P1;durP1;ratioP1;P2;durP2;ratioP2
12760;SDS011;6444;49.742;6.114;2023-11-19T00:02:17;1.10;;;1.00;;
12760;SDS011;6444;49.742;6.114;2023-11-19T00:04:44;1.40;;;1.20;;
12760;SDS011;6444;49.742;6.114;2023-11-19T00:07:11;2.70;;;1.17;;
12760;SDS011;6444;49.742;6.114;2023-11-19T00:09:37;2.20;;;1.20;;
12760;SDS011;6444;49.742;6.114;2023-11-19T00:12:05;1.70;;;1.40;;
12760;SDS011;6444;49.742;6.114;2023-11-19T00:14:32;2.22;;;1.30;;
12760;SDS011;6444;49.742;6.114;2023-11-19T00:16:58;1.45;;;1.30;;
12760;SDS011;6444;49.742;6.114;2023-11-19T00:19:25;1.83;;;1.30;;
12760;SDS011;6444;49.742;6.114;2023-11-19T00:21:52;2.10;;;1.67;;
12760;SDS011;6444;49.742;6.114;2023-11-19T00:24:18;5.03;;;1.42;;
12760;SDS011;6444;49.742;6.114;2023-11-19T00:26:45;1.95;;;1.33;;
12760;SDS011;6444;49.742;6.114;2023-11-19T00:29:12;3.95;;;1.25;;
12760;SDS011;6444;49.742;6.114;2023-11-19T00:31:38;2.45;;;1.20;;
12760;SDS011;6444;49.742;6.114;2023-11-19T00:34:05;1.73;;;1.20;;
12760;SDS011;6444;49.742;6.114;2023-11-19T00:36:31;1.25;;;1.08;;
12760;SDS011;6444;49.742;6.114;2023-11-19T00:38:58;1.77;;;1.40;;
12760;SDS011;6444;49.742;6.114;2023-11-19T00:41:25;1.98;;;1.40;;
12760;SDS011;6444;49.742;6.114;2023-11-19T00:43:51;1.30;;;1.20;;
12760;SDS011;6444;49.742;6.114;2023-11-19T00:46:18;1.35;;;1.20;;
12760;SDS011;6444;49.742;6.114;2023-11-19T00:48:45;1.52;;;1.20;;
12760;SDS011;6444;49.742;6.114;2023-11-19T00:51:11;2.67;;;1.80;;
12760;SDS011;6444;49.742;6.114;2023-11-19T00:53:38;4.05;;;1.65;;
12760;SDS011;6444;49.742;6.114;2023-11-19T00:56:05;2.17;;;1.67;;
12760;SDS011;6444;49.742;6.114;2023-11-19T00:58:33;2.12;;;1.87;;
12760;SDS011;6444;49.742;6.114;2023-11-19T01:00:59;1.40;;;1.30;;
12760;SDS011;6444;49.742;6.114;2023-11-19T01:03:26;1.30;;;1.20;;
12760;SDS011;6444;49.742;6.114;2023-11-19T01:05:53;1.35;;;1.25;;
12760;SDS011;6444;49.742;6.114;2023-11-19T01:08:19;1.60;;;1.50;;
12760;SDS011;6444;49.742;6.114;2023-11-19T01:10:46;1.55;;;1.27;;
12760;SDS011;6444;49.742;6.114;2023-11-19T01:13:13;3.55;;;1.37;;
12760;SDS011;6444;49.742;6.114;2023-11-19T01:15:39;1.37;;;1.27;;
12760;SDS011;6444;49.742;6.114;2023-11-19T01:18:06;1.80;;;1.40;;
12760;SDS011;6444;49.742;6.114;2023-11-19T01:20:32;2.55;;;1.73;;
12760;SDS011;6444;49.742;6.114;2023-11-19T01:22:59;1.70;;;1.60;;
12760;SDS011;6444;49.742;6.114;2023-11-19T01:25:26;1.77;;;1.67;;
12760;SDS011;6444;49.742;6.114;2023-11-19T01:27:52;2.42;;;1.67;;
12760;SDS011;6444;49.742;6.114;2023-11-19T01:30:19;1.37;;;1.25;;
12760;SDS011;6444;49.742;6.114;2023-11-19T01:32:46;3.03;;;1.45;;
12760;SDS011;6444;49.742;6.114;2023-11-19T01:35:13;1.85;;;1.60;;
12760;SDS011;6444;49.742;6.114;2023-11-19T01:37:40;2.08;;;1.75;;
12760;SDS011;6444;49.742;6.114;2023-11-19T01:40:06;1.90;;;1.70;;
12760;SDS011;6444;49.742;6.114;2023-11-19T01:42:39;2.12;;;1.67;;
12760;SDS011;6444;49.742;6.114;2023-11-19T01:45:06;3.55;;;1.80;;
12760;SDS011;6444;49.742;6.114;2023-11-19T01:47:32;1.60;;;1.50;;
12760;SDS011;6444;49.742;6.114;2023-11-19T01:49:59;2.47;;;2.05;;
12760;SDS011;6444;49.742;6.114;2023-11-19T01:52:26;5.53;;;2.28;;
12760;SDS011;6444;49.742;6.114;2023-11-19T01:54:52;3.70;;;2.37;;
12760;SDS011;6444;49.742;6.114;2023-11-19T01:57:19;2.97;;;2.40;;
12760;SDS011;6444;49.742;6.114;2023-11-19T01:59:45;4.45;;;2.92;;
12760;SDS011;6444;49.742;6.114;2023-11-19T02:02:12;5.87;;;3.58;;
12760;SDS011;6444;49.742;6.114;2023-11-19T02:04:39;4.62;;;3.55;;
12760;SDS011;6444;49.742;6.114;2023-11-19T02:07:05;3.92;;;3.53;;
12760;SDS011;6444;49.742;6.114;2023-11-19T02:09:33;3.97;;;3.08;;
12760;SDS011;6444;49.742;6.114;2023-11-19T02:11:59;4.07;;;3.35;;
12760;SDS011;6444;49.742;6.114;2023-11-19T02:14:26;5.47;;;3.67;;
12760;SDS011;6444;49.742;6.114;2023-11-19T02:16:53;5.55;;;3.45;;
12760;SDS011;6444;49.742;6.114;2023-11-19T02:19:19;3.53;;;2.90;;
12760;SDS011;6444;49.742;6.114;2023-11-19T02:21:47;4.28;;;3.35;;
12760;SDS011;6444;49.742;6.114;2023-11-19T02:24:14;3.92;;;2.83;;
12760;SDS011;6444;49.742;6.114;2023-11-19T02:26:44;3.10;;;2.67;;
12760;SDS011;6444;49.742;6.114;2023-11-19T02:29:09;5.97;;;3.97;;
12760;SDS011;6444;49.742;6.114;2023-11-19T02:31:36;5.50;;;3.80;;
12760;SDS011;6444;49.742;6.114;2023-11-19T02:34:03;6.68;;;4.68;;
12760;SDS011;6444;49.742;6.114;2023-11-19T02:36:29;7.25;;;5.32;;
12760;SDS011;6444;49.742;6.114;2023-11-19T02:38:56;6.47;;;4.10;;
12760;SDS011;6444;49.742;6.114;2023-11-19T02:41:22;6.10;;;4.60;;
12760;SDS011;6444;49.742;6.114;2023-11-19T02:43:49;5.18;;;4.07;;
12760;SDS011;6444;49.742;6.114;2023-11-19T02:46:16;3.40;;;2.95;;
12760;SDS011;6444;49.742;6.114;2023-11-19T02:48:42;5.00;;;3.20;;
12760;SDS011;6444;49.742;6.114;2023-11-19T02:51:10;5.40;;;2.95;;
12760;SDS011;6444;49.742;6.114;2023-11-19T02:53:37;4.95;;;3.50;;
12760;SDS011;6444;49.742;6.114;2023-11-19T02:56:03;5.40;;;3.40;;
12760;SDS011;6444;49.742;6.114;2023-11-19T02:58:36;4.15;;;2.92;;
12760;SDS011;6444;49.742;6.114;2023-11-19T03:01:03;3.80;;;3.40;;
12760;SDS011;6444;49.742;6.114;2023-11-19T03:03:30;4.07;;;3.40;;
12760;SDS011;6444;49.742;6.114;2023-11-19T03:05:59;3.90;;;3.28;;
12760;SDS011;6444;49.742;6.114;2023-11-19T03:08:25;5.72;;;3.45;;
12760;SDS011;6444;49.742;6.114;2023-11-19T03:10:53;3.12;;;2.83;;
12760;SDS011;6444;49.742;6.114;2023-11-19T03:13:19;3.10;;;2.75;;
12760;SDS011;6444;49.742;6.114;2023-11-19T03:15:46;4.80;;;3.33;;
12760;SDS011;6444;49.742;6.114;2023-11-19T03:18:13;3.22;;;2.90;;
12760;SDS011;6444;49.742;6.114;2023-11-19T03:20:39;3.15;;;2.85;;
12760;SDS011;6444;49.742;6.114;2023-11-19T03:23:07;3.95;;;3.40;;
12760;SDS011;6444;49.742;6.114;2023-11-19T03:25:33;3.95;;;3.15;;
12760;SDS011;6444;49.742;6.114;2023-11-19T03:28:00;4.25;;;3.42;;
12760;SDS011;6444;49.742;6.114;2023-11-19T03:30:27;5.03;;;3.40;;
12760;SDS011;6444;49.742;6.114;2023-11-19T03:32:53;4.37;;;3.42;;
12760;SDS011;6444;49.742;6.114;2023-11-19T03:35:20;4.20;;;3.45;;
12760;SDS011;6444;49.742;6.114;2023-11-19T03:37:47;4.87;;;4.15;;
12760;SDS011;6444;49.742;6.114;2023-11-19T03:40:14;6.00;;;4.97;;
12760;SDS011;6444;49.742;6.114;2023-11-19T03:42:40;8.88;;;5.72;;
12760;SDS011;6444;49.742;6.114;2023-11-19T03:45:07;9.05;;;5.68;;
12760;SDS011;6444;49.742;6.114;2023-11-19T03:47:36;9.35;;;5.93;;
12760;SDS011;6444;49.742;6.114;2023-11-19T03:50:03;11.23;;;6.85;;
12760;SDS011;6444;49.742;6.114;2023-11-19T03:52:30;11.15;;;6.90;;
12760;SDS011;6444;49.742;6.114;2023-11-19T03:54:56;12.75;;;6.22;;
12760;SDS011;6444;49.742;6.114;2023-11-19T03:57:23;9.45;;;6.60;;
12760;SDS011;6444;49.742;6.114;2023-11-19T03:59:50;10.10;;;6.20;;
12760;SDS011;6444;49.742;6.114;2023-11-19T04:02:16;8.73;;;7.45;;
12760;SDS011;6444;49.742;6.114;2023-11-19T04:04:44;10.35;;;6.40;;
12760;SDS011;6444;49.742;6.114;2023-11-19T04:07:10;9.32;;;6.10;;
12760;SDS011;6444;49.742;6.114;2023-11-19T04:09:37;9.07;;;5.45;;
12760;SDS011;6444;49.742;6.114;2023-11-19T04:12:03;9.43;;;5.37;;
12760;SDS011;6444;49.742;6.114;2023-11-19T04:14:30;10.52;;;5.55;;
12760;SDS011;6444;49.742;6.114;2023-11-19T04:16:57;7.12;;;4.65;;
12760;SDS011;6444;49.742;6.114;2023-11-19T04:19:23;7.35;;;4.90;;
12760;SDS011;6444;49.742;6.114;2023-11-19T04:21:50;5.37;;;4.82;;
12760;SDS011;6444;49.742;6.114;2023-11-19T04:24:17;6.78;;;4.97;;
12760;SDS011;6444;49.742;6.114;2023-11-19T04:26:44;7.25;;;3.80;;
12760;SDS011;6444;49.742;6.114;2023-11-19T04:29:11;4.78;;;3.95;;
12760;SDS011;6444;49.742;6.114;2023-11-19T04:31:37;4.95;;;3.85;;
12760;SDS011;6444;49.742;6.114;2023-11-19T04:34:04;3.03;;;2.70;;
12760;SDS011;6444;49.742;6.114;2023-11-19T04:36:30;8.45;;;3.10;;
12760;SDS011;6444;49.742;6.114;2023-11-19T04:38:57;4.10;;;2.58;;
12760;SDS011;6444;49.742;6.114;2023-11-19T04:41:24;7.30;;;2.65;;
12760;SDS011;6444;49.742;6.114;2023-11-19T04:43:50;4.95;;;3.08;;
12760;SDS011;6444;49.742;6.114;2023-11-19T04:46:18;3.55;;;2.12;;
12760;SDS011;6444;49.742;6.114;2023-11-19T04:48:44;2.95;;;2.28;;
12760;SDS011;6444;49.742;6.114;2023-11-19T04:51:11;2.35;;;2.00;;
12760;SDS011;6444;49.742;6.114;2023-11-19T04:53:38;5.70;;;2.37;;
12760;SDS011;6444;49.742;6.114;2023-11-19T04:56:08;3.55;;;2.33;;
12760;SDS011;6444;49.742;6.114;2023-11-19T04:58:35;2.20;;;2.00;;
12760;SDS011;6444;49.742;6.114;2023-11-19T05:01:01;4.28;;;2.17;;
12760;SDS011;6444;49.742;6.114;2023-11-19T05:03:28;3.37;;;1.98;;
12760;SDS011;6444;49.742;6.114;2023-11-19T05:05:55;5.05;;;2.50;;
12760;SDS011;6444;49.742;6.114;2023-11-19T05:08:21;4.03;;;2.95;;
12760;SDS011;6444;49.742;6.114;2023-11-19T05:10:48;5.20;;;2.53;;
12760;SDS011;6444;49.742;6.114;2023-11-19T05:13:15;3.72;;;2.42;;
12760;SDS011;6444;49.742;6.114;2023-11-19T05:15:41;5.47;;;2.55;;
12760;SDS011;6444;49.742;6.114;2023-11-19T05:18:09;2.67;;;2.28;;
12760;SDS011;6444;49.742;6.114;2023-11-19T05:20:35;3.90;;;2.50;;
12760;SDS011;6444;49.742;6.114;2023-11-19T05:23:02;3.75;;;2.58;;
12760;SDS011;6444;49.742;6.114;2023-11-19T05:25:28;7.72;;;3.55;;
12760;SDS011;6444;49.742;6.114;2023-11-19T05:27:58;8.10;;;3.42;;
12760;SDS011;6444;49.742;6.114;2023-11-19T05:30:25;8.77;;;3.15;;
12760;SDS011;6444;49.742;6.114;2023-11-19T05:32:51;6.75;;;3.22;;
12760;SDS011;6444;49.742;6.114;2023-11-19T05:35:18;6.37;;;2.40;;
12760;SDS011;6444;49.742;6.114;2023-11-19T05:37:44;13.65;;;3.35;;
12760;SDS011;6444;49.742;6.114;2023-11-19T05:40:11;7.07;;;3.22;;
12760;SDS011;6444;49.742;6.114;2023-11-19T05:42:38;5.10;;;2.50;;
12760;SDS011;6444;49.742;6.114;2023-11-19T05:45:04;7.03;;;2.50;;
12760;SDS011;6444;49.742;6.114;2023-11-19T05:47:31;4.47;;;3.12;;
12760;SDS011;6444;49.742;6.114;2023-11-19T05:49:58;6.55;;;2.90;;
12760;SDS011;6444;49.742;6.114;2023-11-19T05:52:24;7.03;;;2.50;;
12760;SDS011;6444;49.742;6.114;2023-11-19T05:54:51;10.77;;;2.72;;
12760;SDS011;6444;49.742;6.114;2023-11-19T05:57:18;8.73;;;2.97;;
12760;SDS011;6444;49.742;6.114;2023-11-19T05:59:48;5.57;;;2.47;;
12760;SDS011;6444;49.742;6.114;2023-11-19T06:02:14;8.65;;;3.47;;
12760;SDS011;6444;49.742;6.114;2023-11-19T06:04:41;7.70;;;3.20;;
12760;SDS011;6444;49.742;6.114;2023-11-19T06:07:08;6.20;;;2.95;;
12760;SDS011;6444;49.742;6.114;2023-11-19T06:09:34;8.75;;;3.00;;
12760;SDS011;6444;49.742;6.114;2023-11-19T06:12:02;6.37;;;2.85;;
12760;SDS011;6444;49.742;6.114;2023-11-19T06:14:28;6.80;;;2.58;;
12760;SDS011;6444;49.742;6.114;2023-11-19T06:16:55;5.10;;;2.87;;
12760;SDS011;6444;49.742;6.114;2023-11-19T06:19:21;6.55;;;2.60;;
12760;SDS011;6444;49.742;6.114;2023-11-19T06:21:48;8.80;;;2.72;;
12760;SDS011;6444;49.742;6.114;2023-11-19T06:24:16;13.10;;;3.28;;
12760;SDS011;6444;49.742;6.114;2023-11-19T06:26:42;6.62;;;2.35;;
12760;SDS011;6444;49.742;6.114;2023-11-19T06:29:09;8.80;;;2.47;;
12760;SDS011;6444;49.742;6.114;2023-11-19T06:31:35;6.95;;;2.58;;
12760;SDS011;6444;49.742;6.114;2023-11-19T06:34:02;12.20;;;2.25;;
12760;SDS011;6444;49.742;6.114;2023-11-19T06:36:29;5.75;;;2.35;;
12760;SDS011;6444;49.742;6.114;2023-11-19T06:38:56;7.35;;;2.72;;
12760;SDS011;6444;49.742;6.114;2023-11-19T06:41:23;8.30;;;3.30;;
12760;SDS011;6444;49.742;6.114;2023-11-19T06:43:49;6.35;;;2.53;;
12760;SDS011;6444;49.742;6.114;2023-11-19T06:46:16;3.87;;;1.80;;
12760;SDS011;6444;49.742;6.114;2023-11-19T06:48:43;3.47;;;2.03;;
12760;SDS011;6444;49.742;6.114;2023-11-19T06:51:10;7.62;;;2.53;;
12760;SDS011;6444;49.742;6.114;2023-11-19T06:53:37;8.00;;;2.28;;
12760;SDS011;6444;49.742;6.114;2023-11-19T06:56:03;10.20;;;2.83;;
12760;SDS011;6444;49.742;6.114;2023-11-19T06:58:30;7.93;;;4.00;;
12760;SDS011;6444;49.742;6.114;2023-11-19T07:00:56;8.75;;;3.75;;
12760;SDS011;6444;49.742;6.114;2023-11-19T07:03:26;6.20;;;1.98;;
12760;SDS011;6444;49.742;6.114;2023-11-19T07:05:53;6.30;;;2.00;;
12760;SDS011;6444;49.742;6.114;2023-11-19T07:08:19;5.00;;;1.87;;
12760;SDS011;6444;49.742;6.114;2023-11-19T07:10:46;5.25;;;2.28;;
12760;SDS011;6444;49.742;6.114;2023-11-19T07:13:12;9.75;;;2.30;;
12760;SDS011;6444;49.742;6.114;2023-11-19T07:15:39;6.30;;;2.05;;
12760;SDS011;6444;49.742;6.114;2023-11-19T07:18:06;5.60;;;1.90;;
12760;SDS011;6444;49.742;6.114;2023-11-19T07:20:33;6.70;;;1.87;;
12760;SDS011;6444;49.742;6.114;2023-11-19T07:23:00;9.18;;;1.98;;
12760;SDS011;6444;49.742;6.114;2023-11-19T07:25:26;7.00;;;1.83;;
12760;SDS011;6444;49.742;6.114;2023-11-19T07:27:53;7.20;;;1.90;;
12760;SDS011;6444;49.742;6.114;2023-11-19T07:30:20;8.43;;;1.83;;
12760;SDS011;6444;49.742;6.114;2023-11-19T07:32:47;5.10;;;1.58;;
12760;SDS011;6444;49.742;6.114;2023-11-19T07:35:14;5.70;;;2.60;;
12760;SDS011;6444;49.742;6.114;2023-11-19T07:37:40;6.37;;;1.42;;
12760;SDS011;6444;49.742;6.114;2023-11-19T07:40:07;8.02;;;2.87;;
12760;SDS011;6444;49.742;6.114;2023-11-19T07:42:34;6.25;;;2.10;;
12760;SDS011;6444;49.742;6.114;2023-11-19T07:45:00;8.57;;;2.35;;
12760;SDS011;6444;49.742;6.114;2023-11-19T07:47:27;5.90;;;2.20;;
12760;SDS011;6444;49.742;6.114;2023-11-19T07:49:54;5.80;;;2.22;;
12760;SDS011;6444;49.742;6.114;2023-11-19T07:52:20;4.57;;;1.85;;
12760;SDS011;6444;49.742;6.114;2023-11-19T07:54:47;9.90;;;2.60;;
12760;SDS011;6444;49.742;6.114;2023-11-19T07:59:33;7.85;;;2.65;;
12760;SDS011;6444;49.742;6.114;2023-11-19T08:02:01;18.00;;;9.65;;
12760;SDS011;6444;49.742;6.114;2023-11-19T08:04:27;6.15;;;2.40;;
12760;SDS011;6444;49.742;6.114;2023-11-19T08:06:54;5.18;;;2.35;;
12760;SDS011;6444;49.742;6.114;2023-11-19T08:09:21;5.60;;;2.10;;
12760;SDS011;6444;49.742;6.114;2023-11-19T08:11:47;5.75;;;1.60;;
12760;SDS011;6444;49.742;6.114;2023-11-19T08:14:14;6.18;;;1.65;;
12760;SDS011;6444;49.742;6.114;2023-11-19T08:16:41;8.38;;;2.20;;
12760;SDS011;6444;49.742;6.114;2023-11-19T08:19:08;4.50;;;1.77;;
12760;SDS011;6444;49.742;6.114;2023-11-19T08:21:35;7.03;;;2.03;;
12760;SDS011;6444;49.742;6.114;2023-11-19T08:24:02;7.37;;;1.83;;
12760;SDS011;6444;49.742;6.114;2023-11-19T08:26:29;6.28;;;2.30;;
12760;SDS011;6444;49.742;6.114;2023-11-19T08:28:56;6.35;;;1.98;;
12760;SDS011;6444;49.742;6.114;2023-11-19T08:31:24;8.65;;;2.00;;
12760;SDS011;6444;49.742;6.114;2023-11-19T08:33:49;5.40;;;2.30;;
12760;SDS011;6444;49.742;6.114;2023-11-19T08:36:17;9.43;;;2.78;;
12760;SDS011;6444;49.742;6.114;2023-11-19T08:38:43;7.32;;;2.70;;
12760;SDS011;6444;49.742;6.114;2023-11-19T08:41:10;10.23;;;4.78;;
12760;SDS011;6444;49.742;6.114;2023-11-19T08:43:37;7.12;;;2.10;;
12760;SDS011;6444;49.742;6.114;2023-11-19T08:46:08;7.78;;;2.30;;
12760;SDS011;6444;49.742;6.114;2023-11-19T08:48:31;4.65;;;2.30;;
12760;SDS011;6444;49.742;6.114;2023-11-19T08:50:57;5.82;;;2.22;;
12760;SDS011;6444;49.742;6.114;2023-11-19T08:53:24;8.32;;;1.90;;
12760;SDS011;6444;49.742;6.114;2023-11-19T08:55:50;8.93;;;2.12;;
12760;SDS011;6444;49.742;6.114;2023-11-19T08:58:17;8.68;;;2.33;;
12760;SDS011;6444;49.742;6.114;2023-11-19T09:00:44;7.37;;;2.03;;
12760;SDS011;6444;49.742;6.114;2023-11-19T09:03:10;5.97;;;2.00;;
12760;SDS011;6444;49.742;6.114;2023-11-19T09:05:37;5.40;;;1.52;;
12760;SDS011;6444;49.742;6.114;2023-11-19T09:08:04;7.45;;;1.77;;
12760;SDS011;6444;49.742;6.114;2023-11-19T09:10:31;7.70;;;1.85;;
12760;SDS011;6444;49.742;6.114;2023-11-19T09:12:58;11.43;;;2.55;;
12760;SDS011;6444;49.742;6.114;2023-11-19T09:15:24;10.52;;;2.67;;
12760;SDS011;6444;49.742;6.114;2023-11-19T09:17:51;9.10;;;2.33;;
12760;SDS011;6444;49.742;6.114;2023-11-19T09:20:20;5.93;;;3.10;;
12760;SDS011;6444;49.742;6.114;2023-11-19T09:22:47;4.78;;;2.08;;
12760;SDS011;6444;49.742;6.114;2023-11-19T09:25:13;8.63;;;3.90;;
12760;SDS011;6444;49.742;6.114;2023-11-19T09:27:40;7.68;;;3.22;;
12760;SDS011;6444;49.742;6.114;2023-11-19T09:30:07;28.87;;;18.98;;
12760;SDS011;6444;49.742;6.114;2023-11-19T09:32:34;14.38;;;6.28;;
12760;SDS011;6444;49.742;6.114;2023-11-19T09:35:00;13.30;;;5.93;;
12760;SDS011;6444;49.742;6.114;2023-11-19T09:37:27;11.68;;;5.80;;
12760;SDS011;6444;49.742;6.114;2023-11-19T09:39:54;17.00;;;10.40;;
12760;SDS011;6444;49.742;6.114;2023-11-19T09:42:20;15.05;;;8.23;;
12760;SDS011;6444;49.742;6.114;2023-11-19T09:44:48;14.90;;;8.13;;
12760;SDS011;6444;49.742;6.114;2023-11-19T09:47:14;17.05;;;9.35;;
12760;SDS011;6444;49.742;6.114;2023-11-19T09:49:41;13.57;;;5.90;;
12760;SDS011;6444;49.742;6.114;2023-11-19T09:52:07;13.32;;;4.22;;
12760;SDS011;6444;49.742;6.114;2023-11-19T09:54:34;14.00;;;5.72;;
12760;SDS011;6444;49.742;6.114;2023-11-19T09:57:01;15.32;;;9.02;;
12760;SDS011;6444;49.742;6.114;2023-11-19T09:59:28;11.98;;;5.00;;
12760;SDS011;6444;49.742;6.114;2023-11-19T10:01:54;11.65;;;5.10;;
12760;SDS011;6444;49.742;6.114;2023-11-19T10:04:22;14.35;;;6.28;;
12760;SDS011;6444;49.742;6.114;2023-11-19T10:06:49;11.68;;;2.67;;
12760;SDS011;6444;49.742;6.114;2023-11-19T10:09:15;9.32;;;2.65;;
12760;SDS011;6444;49.742;6.114;2023-11-19T10:11:41;13.65;;;5.43;;
12760;SDS011;6444;49.742;6.114;2023-11-19T10:14:09;7.65;;;3.22;;
12760;SDS011;6444;49.742;6.114;2023-11-19T10:16:35;11.73;;;3.67;;
12760;SDS011;6444;49.742;6.114;2023-11-19T10:19:02;10.65;;;2.45;;
12760;SDS011;6444;49.742;6.114;2023-11-19T10:21:29;7.53;;;2.20;;
12760;SDS011;6444;49.742;6.114;2023-11-19T10:23:56;12.52;;;2.47;;
12760;SDS011;6444;49.742;6.114;2023-11-19T10:26:26;7.68;;;2.42;;
12760;SDS011;6444;49.742;6.114;2023-11-19T10:28:52;10.43;;;2.83;;
12760;SDS011;6444;49.742;6.114;2023-11-19T10:31:19;8.77;;;2.50;;
12760;SDS011;6444;49.742;6.114;2023-11-19T10:33:45;11.90;;;4.40;;
12760;SDS011;6444;49.742;6.114;2023-11-19T10:36:12;12.20;;;2.65;;
12760;SDS011;6444;49.742;6.114;2023-11-19T10:38:40;16.10;;;5.15;;
12760;SDS011;6444;49.742;6.114;2023-11-19T10:41:06;43.20;;;24.30;;
12760;SDS011;6444;49.742;6.114;2023-11-19T10:43:42;23.33;;;10.65;;
12760;SDS011;6444;49.742;6.114;2023-11-19T10:46:12;13.75;;;5.20;;
12760;SDS011;6444;49.742;6.114;2023-11-19T10:48:38;39.83;;;24.40;;
12760;SDS011;6444;49.742;6.114;2023-11-19T10:51:05;22.27;;;11.63;;
12760;SDS011;6444;49.742;6.114;2023-11-19T10:53:31;25.62;;;15.68;;
12760;SDS011;6444;49.742;6.114;2023-11-19T10:55:58;22.62;;;9.98;;
12760;SDS011;6444;49.742;6.114;2023-11-19T10:58:24;34.13;;;20.73;;
12760;SDS011;6444;49.742;6.114;2023-11-19T11:00:52;19.17;;;6.45;;
12760;SDS011;6444;49.742;6.114;2023-11-19T11:03:18;55.58;;;36.55;;
12760;SDS011;6444;49.742;6.114;2023-11-19T11:05:48;29.75;;;19.40;;
12760;SDS011;6444;49.742;6.114;2023-11-19T11:08:16;13.02;;;7.95;;
12760;SDS011;6444;49.742;6.114;2023-11-19T11:10:47;23.98;;;14.23;;
12760;SDS011;6444;49.742;6.114;2023-11-19T11:13:13;21.90;;;12.63;;
12760;SDS011;6444;49.742;6.114;2023-11-19T11:15:39;20.05;;;7.82;;
12760;SDS011;6444;49.742;6.114;2023-11-19T11:18:05;17.50;;;7.90;;
12760;SDS011;6444;49.742;6.114;2023-11-19T11:20:32;19.42;;;7.47;;
12760;SDS011;6444;49.742;6.114;2023-11-19T11:31:43;18.70;;;6.70;;
12760;SDS011;6444;49.742;6.114;2023-11-19T11:34:39;12.80;;;6.18;;
12760;SDS011;6444;49.742;6.114;2023-11-19T11:37:18;12.55;;;4.85;;
12760;SDS011;6444;49.742;6.114;2023-11-19T11:39:45;15.98;;;9.15;;
12760;SDS011;6444;49.742;6.114;2023-11-19T11:45:00;16.48;;;8.40;;
12760;SDS011;6444;49.742;6.114;2023-11-19T11:50:12;13.80;;;5.68;;
12760;SDS011;6444;49.742;6.114;2023-11-19T11:55:37;15.32;;;5.75;;
12760;SDS011;6444;49.742;6.114;2023-11-19T11:58:03;10.98;;;3.03;;
12760;SDS011;6444;49.742;6.114;2023-11-19T12:00:29;12.97;;;4.70;;
12760;SDS011;6444;49.742;6.114;2023-11-19T12:02:56;9.38;;;2.90;;
12760;SDS011;6444;49.742;6.114;2023-11-19T12:05:22;10.23;;;2.67;;
12760;SDS011;6444;49.742;6.114;2023-11-19T12:07:55;10.10;;;2.75;;
12760;SDS011;6444;49.742;6.114;2023-11-19T12:10:21;8.02;;;2.75;;
12760;SDS011;6444;49.742;6.114;2023-11-19T12:12:48;9.20;;;2.28;;
12760;SDS011;6444;49.742;6.114;2023-11-19T12:15:15;6.95;;;2.37;;
12760;SDS011;6444;49.742;6.114;2023-11-19T12:17:43;10.75;;;3.47;;
12760;SDS011;6444;49.742;6.114;2023-11-19T12:20:09;10.25;;;3.28;;
12760;SDS011;6444;49.742;6.114;2023-11-19T12:22:39;8.68;;;2.37;;
12760;SDS011;6444;49.742;6.114;2023-11-19T12:25:02;6.82;;;1.80;;
12760;SDS011;6444;49.742;6.114;2023-11-19T12:27:29;9.68;;;1.95;;
12760;SDS011;6444;49.742;6.114;2023-11-19T12:29:56;7.97;;;2.60;;
12760;SDS011;6444;49.742;6.114;2023-11-19T12:32:23;9.93;;;2.10;;
12760;SDS011;6444;49.742;6.114;2023-11-19T12:34:49;12.77;;;2.28;;
12760;SDS011;6444;49.742;6.114;2023-11-19T12:37:16;8.05;;;1.98;;
12760;SDS011;6444;49.742;6.114;2023-11-19T12:39:42;6.85;;;2.08;;
12760;SDS011;6444;49.742;6.114;2023-11-19T12:42:09;8.30;;;2.00;;
12760;SDS011;6444;49.742;6.114;2023-11-19T12:44:36;10.23;;;2.15;;
12760;SDS011;6444;49.742;6.114;2023-11-19T12:47:08;5.32;;;1.98;;
12760;SDS011;6444;49.742;6.114;2023-11-19T12:49:35;9.20;;;2.92;;
12760;SDS011;6444;49.742;6.114;2023-11-19T12:52:02;12.40;;;2.85;;
12760;SDS011;6444;49.742;6.114;2023-11-19T12:54:32;11.73;;;2.92;;
12760;SDS011;6444;49.742;6.114;2023-11-19T12:56:58;9.82;;;2.33;;
12760;SDS011;6444;49.742;6.114;2023-11-19T12:59:25;6.72;;;2.30;;
12760;SDS011;6444;49.742;6.114;2023-11-19T13:01:55;8.50;;;2.90;;
12760;SDS011;6444;49.742;6.114;2023-11-19T13:04:21;11.48;;;3.05;;
12760;SDS011;6444;49.742;6.114;2023-11-19T13:06:47;5.50;;;1.40;;
12760;SDS011;6444;49.742;6.114;2023-11-19T13:09:26;8.00;;;2.42;;
12760;SDS011;6444;49.742;6.114;2023-11-19T13:11:53;10.90;;;2.17;;
12760;SDS011;6444;49.742;6.114;2023-11-19T13:14:19;8.23;;;2.08;;
12760;SDS011;6444;49.742;6.114;2023-11-19T13:16:46;11.13;;;3.13;;
12760;SDS011;6444;49.742;6.114;2023-11-19T13:19:13;9.70;;;2.33;;
12760;SDS011;6444;49.742;6.114;2023-11-19T13:21:40;9.40;;;2.50;;
12760;SDS011;6444;49.742;6.114;2023-11-19T13:24:06;12.13;;;2.35;;
12760;SDS011;6444;49.742;6.114;2023-11-19T13:26:33;10.45;;;2.83;;
12760;SDS011;6444;49.742;6.114;2023-11-19T13:29:00;8.07;;;2.40;;
12760;SDS011;6444;49.742;6.114;2023-11-19T13:31:27;8.27;;;1.80;;
12760;SDS011;6444;49.742;6.114;2023-11-19T13:33:54;7.18;;;1.80;;
12760;SDS011;6444;49.742;6.114;2023-11-19T13:36:20;11.40;;;2.42;;
12760;SDS011;6444;49.742;6.114;2023-11-19T13:38:47;8.90;;;2.10;;
12760;SDS011;6444;49.742;6.114;2023-11-19T13:41:14;9.95;;;1.77;;
12760;SDS011;6444;49.742;6.114;2023-11-19T13:43:40;8.13;;;1.92;;
12760;SDS011;6444;49.742;6.114;2023-11-19T13:46:07;7.53;;;1.73;;
12760;SDS011;6444;49.742;6.114;2023-11-19T13:48:34;9.32;;;2.05;;
12760;SDS011;6444;49.742;6.114;2023-11-19T13:51:00;6.68;;;1.98;;
12760;SDS011;6444;49.742;6.114;2023-11-19T13:53:30;7.90;;;2.00;;
12760;SDS011;6444;49.742;6.114;2023-11-19T13:55:56;9.30;;;2.15;;
12760;SDS011;6444;49.742;6.114;2023-11-19T13:58:23;7.68;;;1.95;;
12760;SDS011;6444;49.742;6.114;2023-11-19T14:00:50;8.80;;;2.28;;
12760;SDS011;6444;49.742;6.114;2023-11-19T14:03:17;7.20;;;2.00;;
12760;SDS011;6444;49.742;6.114;2023-11-19T14:05:44;8.38;;;1.73;;
12760;SDS011;6444;49.742;6.114;2023-11-19T14:08:10;7.60;;;2.10;;
12760;SDS011;6444;49.742;6.114;2023-11-19T14:10:40;11.30;;;2.62;;
12760;SDS011;6444;49.742;6.114;2023-11-19T14:13:06;7.97;;;2.30;;
12760;SDS011;6444;49.742;6.114;2023-11-19T14:15:33;10.23;;;2.28;;
12760;SDS011;6444;49.742;6.114;2023-11-19T14:17:59;6.95;;;2.25;;
12760;SDS011;6444;49.742;6.114;2023-11-19T14:20:27;10.25;;;1.87;;
12760;SDS011;6444;49.742;6.114;2023-11-19T14:22:53;11.43;;;2.33;;
12760;SDS011;6444;49.742;6.114;2023-11-19T14:25:20;11.02;;;2.20;;
12760;SDS011;6444;49.742;6.114;2023-11-19T14:27:47;10.73;;;2.53;;
12760;SDS011;6444;49.742;6.114;2023-11-19T14:30:13;8.95;;;2.40;;
12760;SDS011;6444;49.742;6.114;2023-11-19T14:32:41;13.60;;;2.25;;
12760;SDS011;6444;49.742;6.114;2023-11-19T14:35:07;9.50;;;2.17;;
12760;SDS011;6444;49.742;6.114;2023-11-19T14:37:34;9.23;;;2.40;;
12760;SDS011;6444;49.742;6.114;2023-11-19T14:40:01;9.68;;;2.50;;
12760;SDS011;6444;49.742;6.114;2023-11-19T14:42:27;9.35;;;2.50;;
12760;SDS011;6444;49.742;6.114;2023-11-19T14:44:54;11.35;;;2.45;;
12760;SDS011;6444;49.742;6.114;2023-11-19T14:47:21;8.90;;;2.80;;
12760;SDS011;6444;49.742;6.114;2023-11-19T14:49:48;8.82;;;2.15;;
12760;SDS011;6444;49.742;6.114;2023-11-19T14:52:15;8.02;;;2.35;;
12760;SDS011;6444;49.742;6.114;2023-11-19T14:54:41;10.77;;;2.37;;
12760;SDS011;6444;49.742;6.114;2023-11-19T14:57:09;12.13;;;2.33;;
12760;SDS011;6444;49.742;6.114;2023-11-19T14:59:36;9.25;;;2.33;;
12760;SDS011;6444;49.742;6.114;2023-11-19T15:02:03;12.45;;;2.60;;
12760;SDS011;6444;49.742;6.114;2023-11-19T15:04:29;12.50;;;2.40;;
12760;SDS011;6444;49.742;6.114;2023-11-19T15:06:59;7.37;;;2.45;;
12760;SDS011;6444;49.742;6.114;2023-11-19T15:09:26;9.23;;;2.45;;
12760;SDS011;6444;49.742;6.114;2023-11-19T15:11:56;9.23;;;2.35;;
12760;SDS011;6444;49.742;6.114;2023-11-19T15:14:22;10.32;;;2.72;;
12760;SDS011;6444;49.742;6.114;2023-11-19T15:16:49;16.62;;;2.45;;